PWSweather.com
Personal Weather Stations
Station Observations
79674
AfterstegDE 79674

AfterstegDE 79674

Lat: 47.84344, Lon: 7.92844

Elevation: 809

Station Type: Davis Vantage 2 Aktive

Latest ConditionsUpdated 3:12:04 AM GMT+01:01 Monday, Mar 30, 2015
Currently Today's Max Today's Min Today's Average
Temperature 45.3°F7.4°C 45.5°F7.5°C 44.6°F7.0°C 45.1°F7.3°C
Dew Point 43.3°F6.3°C 43.3°F6.3°C 42.1°F5.6°C 42.9°F6.1°C
Winds 8.9 mph N14.3 kmh N 12.1 mph ESE19.5 kmh ESE - 8.5 mph 13.7 kmh
Wind Gusts 21.0 mph33.8 kmh 21.0 mph33.8 kmh - -
Humidity 93% 93% 91% 92%
Pressure 29.65 in1004.1 mb 29.75 in1007.5 mb 29.65 in1004.1 mb -
Precipitation - 0.46 in11.7 mm - -
Hour Temp Dew Point Humidity Winds Wind Gusts Pressure Precip Precip Rate Daily Precip Total
03:12 AM 45.3°F7.4°C 43.3°F6.3°C 93% 8.9 mph N14.3 kmh N 21.0 mph33.8 kmh 29.65 in1004.1 mb - 0.00 in0.0 mm 0.46 in11.7 mm
03:07 AM 45.3°F7.4°C 43.2°F6.2°C 92% 6.9 mph SSE11.1 kmh SSE 10.1 mph16.3 kmh 29.67 in1004.7 mb - 0.00 in0.0 mm 0.46 in11.7 mm
03:02 AM 45.3°F7.4°C 43.2°F6.2°C 92% 8.1 mph NNW13.0 kmh NNW 14.1 mph22.7 kmh 29.66 in1004.4 mb - 0.03 in0.8 mm 0.46 in11.7 mm
02:57 AM 45.3°F7.4°C 43.2°F6.2°C 92% 10.1 mph WSW16.3 kmh WSW 8.1 mph13.0 kmh 29.66 in1004.4 mb - 0.05 in1.3 mm 0.46 in11.7 mm
02:52 AM 45.3°F7.4°C 43.2°F6.2°C 92% 10.1 mph E16.3 kmh E 10.1 mph16.3 kmh 29.66 in1004.4 mb - 0.07 in1.8 mm 0.46 in11.7 mm
02:47 AM 45.3°F7.4°C 43.2°F6.2°C 92% 8.1 mph NW13.0 kmh NW 8.9 mph14.3 kmh 29.67 in1004.7 mb - 0.08 in2.0 mm 0.45 in11.4 mm
02:42 AM 45.5°F7.5°C 43.3°F6.3°C 92% 11.0 mph E17.7 kmh E 8.9 mph14.3 kmh 29.66 in1004.4 mb - 0.09 in2.3 mm 0.44 in11.2 mm
02:37 AM 45.5°F7.5°C 43.3°F6.3°C 92% 11.0 mph SE17.7 kmh SE 4.0 mph6.4 kmh 29.66 in1004.4 mb - 0.09 in2.3 mm 0.43 in10.9 mm
02:32 AM 45.3°F7.4°C 43.2°F6.2°C 92% 10.1 mph ESE16.3 kmh ESE 2.9 mph4.7 kmh 29.66 in1004.4 mb - 0.08 in2.0 mm 0.43 in10.9 mm
02:27 AM 45.3°F7.4°C 43.2°F6.2°C 92% 12.1 mph ESE19.5 kmh ESE 10.1 mph16.3 kmh 29.66 in1004.4 mb - 0.12 in3.0 mm 0.42 in10.7 mm
02:22 AM 45.3°F7.4°C 43.3°F6.3°C 93% 10.1 mph SE16.3 kmh SE 11.0 mph17.7 kmh 29.66 in1004.4 mb - 0.09 in2.3 mm 0.41 in10.4 mm
02:17 AM 45.3°F7.4°C 43.3°F6.3°C 93% 6.9 mph SE11.1 kmh SE 8.9 mph14.3 kmh 29.68 in1005.1 mb - 0.18 in4.6 mm 0.40 in10.2 mm
02:12 AM 45.3°F7.4°C 43.3°F6.3°C 93% 8.1 mph N13.0 kmh N 2.0 mph3.2 kmh 29.67 in1004.7 mb - 0.12 in3.0 mm 0.39 in9.9 mm
02:07 AM 45.1°F7.3°C 43.2°F6.2°C 93% 8.1 mph S13.0 kmh S 12.1 mph19.5 kmh 29.68 in1005.1 mb - 0.09 in2.3 mm 0.39 in9.9 mm
02:02 AM 45.1°F7.3°C 43.0°F6.1°C 92% 8.1 mph ESE13.0 kmh ESE 2.0 mph3.2 kmh 29.68 in1005.1 mb - 0.15 in3.8 mm 0.38 in9.7 mm
01:57 AM 45.1°F7.3°C 43.2°F6.2°C 93% 6.9 mph NE11.1 kmh NE 4.9 mph7.9 kmh 29.68 in1005.1 mb - 0.12 in3.0 mm 0.36 in9.1 mm
01:52 AM 45.1°F7.3°C 43.2°F6.2°C 93% 8.1 mph SE13.0 kmh SE 0.9 mph1.4 kmh 29.68 in1005.1 mb - 0.20 in5.1 mm 0.35 in8.9 mm
01:47 AM 45.0°F7.2°C 43.0°F6.1°C 93% 8.9 mph SE14.3 kmh SE 14.1 mph22.7 kmh 29.68 in1005.1 mb - 0.17 in4.3 mm 0.34 in8.6 mm
01:42 AM 44.8°F7.1°C 42.8°F6.0°C 93% 6.9 mph SSE11.1 kmh SSE 6.0 mph9.7 kmh 29.68 in1005.1 mb - 0.10 in2.5 mm 0.33 in8.4 mm
01:37 AM 44.8°F7.1°C 42.6°F5.9°C 92% 6.0 mph ESE9.7 kmh ESE 6.9 mph11.1 kmh 29.68 in1005.1 mb - 0.11 in2.8 mm 0.32 in8.1 mm
01:32 AM 44.8°F7.1°C 42.6°F5.9°C 92% 6.0 mph ESE9.7 kmh ESE 8.9 mph14.3 kmh 29.68 in1005.1 mb - 0.11 in2.8 mm 0.31 in7.9 mm
01:27 AM 44.6°F7.0°C 42.4°F5.8°C 92% 6.9 mph E11.1 kmh E 0.9 mph1.4 kmh 29.69 in1005.4 mb - 0.08 in2.0 mm 0.30 in7.6 mm
01:22 AM 44.6°F7.0°C 42.1°F5.6°C 91% 6.9 mph E11.1 kmh E 13.0 mph20.9 kmh 29.69 in1005.4 mb - 0.06 in1.5 mm 0.30 in7.6 mm
01:17 AM 44.6°F7.0°C 42.1°F5.6°C 91% 6.9 mph SE11.1 kmh SE 4.0 mph6.4 kmh 29.69 in1005.4 mb - 0.07 in1.8 mm 0.29 in7.4 mm
01:12 AM 44.8°F7.1°C 42.3°F5.7°C 91% 8.1 mph SE13.0 kmh SE 4.9 mph7.9 kmh 29.70 in1005.8 mb - 0.07 in1.8 mm 0.28 in7.1 mm
01:07 AM 44.8°F7.1°C 42.3°F5.7°C 91% 6.0 mph E9.7 kmh E 2.9 mph4.7 kmh 29.70 in1005.8 mb - 0.09 in2.3 mm 0.28 in7.1 mm
01:02 AM 45.0°F7.2°C 42.4°F5.8°C 91% 6.0 mph ESE9.7 kmh ESE 8.1 mph13.0 kmh 29.70 in1005.8 mb - 0.07 in1.8 mm 0.27 in6.9 mm
12:57 AM 45.0°F7.2°C 42.4°F5.8°C 91% 8.1 mph NW13.0 kmh NW 4.9 mph7.9 kmh 29.71 in1006.1 mb - 0.09 in2.3 mm 0.26 in6.6 mm
12:52 AM 45.0°F7.2°C 42.4°F5.8°C 91% 8.9 mph NNW14.3 kmh NNW 4.9 mph7.9 kmh 29.71 in1006.1 mb - 0.12 in3.0 mm 0.26 in6.6 mm
12:47 AM 45.0°F7.2°C 42.4°F5.8°C 91% 10.1 mph N16.3 kmh N 8.1 mph13.0 kmh 29.72 in1006.4 mb - 0.15 in3.8 mm 0.24 in6.1 mm
12:42 AM 45.0°F7.2°C 42.4°F5.8°C 91% 8.9 mph 14.3 kmh 14.1 mph22.7 kmh 29.73 in1006.8 mb - 0.12 in3.0 mm 0.23 in5.8 mm
12:37 AM 45.1°F7.3°C 42.6°F5.9°C 91% 10.1 mph N16.3 kmh N 8.1 mph13.0 kmh 29.73 in1006.8 mb - 0.11 in2.8 mm 0.22 in5.6 mm
12:32 AM 45.1°F7.3°C 42.6°F5.9°C 91% 10.1 mph N16.3 kmh N 14.1 mph22.7 kmh 29.72 in1006.4 mb - 0.23 in5.8 mm 0.21 in5.3 mm
12:27 AM 45.3°F7.4°C 42.8°F6.0°C 91% 10.1 mph NE16.3 kmh NE 6.9 mph11.1 kmh 29.73 in1006.8 mb - 0.13 in3.3 mm 0.20 in5.1 mm
12:22 AM 45.3°F7.4°C 42.8°F6.0°C 91% 10.1 mph NNW16.3 kmh NNW 8.9 mph14.3 kmh 29.73 in1006.8 mb - 0.10 in2.5 mm 0.19 in4.8 mm
12:17 AM 45.3°F7.4°C 42.8°F6.0°C 91% 10.1 mph E16.3 kmh E 11.0 mph17.7 kmh 29.75 in1007.5 mb - 0.16 in4.1 mm 0.17 in4.3 mm
12:12 AM 45.5°F7.5°C 43.3°F6.3°C 92% 8.1 mph ENE13.0 kmh ENE 4.9 mph7.9 kmh 29.74 in1007.1 mb - 0.32 in8.1 mm 0.16 in4.1 mm
12:07 AM 45.5°F7.5°C 43.3°F6.3°C 92% 8.1 mph E13.0 kmh E 8.9 mph14.3 kmh 29.73 in1006.8 mb - 0.27 in6.9 mm 0.15 in3.8 mm
12:02 AM 45.5°F7.5°C 43.3°F6.3°C 92% 8.9 mph E14.3 kmh E 8.9 mph14.3 kmh 29.72 in1006.4 mb - 0.40 in10.2 mm 0.13 in3.3 mm